createdAt,value
2018-10-16T00:02:06.793Z,14.38
2018-10-16T00:07:09.221Z,12.88
2018-10-16T00:12:11.610Z,12.65
2018-10-16T00:17:13.924Z,17.23
2018-10-16T00:22:16.268Z,12.88
2018-10-16T00:27:18.580Z,13.68
2018-10-16T00:32:20.889Z,11.83
2018-10-16T00:37:23.299Z,12.37
2018-10-16T00:42:25.669Z,11.83
2018-10-16T00:47:28.015Z,11.00
2018-10-16T00:52:30.332Z,15.45
2018-10-16T00:57:32.640Z,11.53
2018-10-16T01:02:35.043Z,13.98
2018-10-16T01:07:37.524Z,13.35
2018-10-16T01:12:40.524Z,14.23
2018-10-16T01:17:42.911Z,13.98
2018-10-16T01:22:45.249Z,11.25
2018-10-16T01:27:47.557Z,12.13
2018-10-16T01:32:49.857Z,13.75
2018-10-16T01:37:52.265Z,11.50
2018-10-16T01:42:54.678Z,12.43
2018-10-16T01:47:56.985Z,13.25
2018-10-16T01:52:59.307Z,14.95
2018-10-16T01:58:01.649Z,13.58
2018-10-16T02:03:04.103Z,13.88
2018-10-16T02:08:07.424Z,16.48
2018-10-16T02:13:09.757Z,13.20
2018-10-16T02:18:12.102Z,11.35
2018-10-16T02:23:14.443Z,14.30
2018-10-16T02:28:16.783Z,13.58
2018-10-16T02:33:19.085Z,14.00
2018-10-16T02:38:21.457Z,14.93
2018-10-16T02:43:23.835Z,15.45
2018-10-16T02:48:26.144Z,15.90
2018-10-16T02:53:28.468Z,15.18
2018-10-16T02:58:30.824Z,12.80
2018-10-16T03:03:34.919Z,14.70
2018-10-16T03:08:37.823Z,14.90
2018-10-16T03:13:40.188Z,14.80
2018-10-16T03:18:42.489Z,16.45
2018-10-16T03:23:44.832Z,17.23
2018-10-16T03:28:47.169Z,14.18
2018-10-16T03:33:49.478Z,14.47
2018-10-16T03:38:51.832Z,15.05
2018-10-16T03:43:59.349Z,16.05
2018-10-16T03:49:01.694Z,16.07
2018-10-16T03:54:04.399Z,15.93
2018-10-16T03:59:06.688Z,18.20
2018-10-16T04:04:09.013Z,14.25
2018-10-16T04:09:11.309Z,15.28
2018-10-16T04:14:13.630Z,14.45
2018-10-16T04:19:15.905Z,16.05
2018-10-16T04:24:18.184Z,15.13
2018-10-16T04:29:20.496Z,16.65
2018-10-16T04:34:22.774Z,16.77
2018-10-16T04:39:25.024Z,14.30
2018-10-16T04:44:27.321Z,14.78
2018-10-16T04:49:29.572Z,17.65
2018-10-16T04:54:31.818Z,18.20
2018-10-16T04:59:34.074Z,15.60
2018-10-16T05:04:36.329Z,13.98
2018-10-16T05:09:38.697Z,17.15
2018-10-16T05:14:41.028Z,17.27
2018-10-16T05:19:43.269Z,15.15
2018-10-16T05:24:45.558Z,16.12
2018-10-16T05:29:47.841Z,20.32
2018-10-16T05:34:50.130Z,16.65
2018-10-16T05:39:52.414Z,17.57
2018-10-16T05:44:54.731Z,19.60
2018-10-16T05:49:57.021Z,18.27
2018-10-16T05:55:00.812Z,17.62
2018-10-16T06:00:15.805Z,16.32
2018-10-16T06:05:18.103Z,19.48
2018-10-16T06:10:20.435Z,13.93
2018-10-16T06:15:22.743Z,15.20
2018-10-16T06:20:25.159Z,15.38
2018-10-16T06:25:27.448Z,18.65
2018-10-16T06:30:29.723Z,29.95
2018-10-16T06:35:32.239Z,23.52
2018-10-16T06:40:34.555Z,20.10
2018-10-16T06:45:36.863Z,14.80
2018-10-16T06:50:39.123Z,18.95
2018-10-16T06:55:41.372Z,16.35
2018-10-16T07:00:43.620Z,14.53
2018-10-16T07:05:45.891Z,15.23
2018-10-16T07:10:48.161Z,17.77
2018-10-16T07:15:50.485Z,14.80
2018-10-16T07:20:52.755Z,16.75
2018-10-16T07:25:55.062Z,15.72
2018-10-16T07:30:57.348Z,18.12
2018-10-16T07:35:59.702Z,17.07
2018-10-16T07:41:01.999Z,20.40
2018-10-16T07:46:04.569Z,15.95
2018-10-16T07:51:06.847Z,20.27
2018-10-16T07:56:09.233Z,18.85
2018-10-16T08:01:11.520Z,15.30
2018-10-16T08:06:13.812Z,24.20
2018-10-16T08:11:16.124Z,19.57
2018-10-16T08:16:18.512Z,17.27
2018-10-16T08:21:20.765Z,17.12
2018-10-16T08:26:23.024Z,15.30
2018-10-16T08:31:25.410Z,12.23
2018-10-16T08:36:27.746Z,14.10
2018-10-16T08:41:34.758Z,16.57
2018-10-16T08:46:48.638Z,16.05
2018-10-16T08:51:53.317Z,15.18
2018-10-16T08:56:55.594Z,15.35
2018-10-16T09:01:57.961Z,14.45
2018-10-16T09:07:00.360Z,16.12
2018-10-16T09:12:02.661Z,16.95
2018-10-16T09:17:05.119Z,16.62
2018-10-16T09:22:07.445Z,16.25
2018-10-16T09:27:09.811Z,15.68
2018-10-16T09:32:12.081Z,15.18
2018-10-16T09:37:14.422Z,22.32
2018-10-16T09:42:16.695Z,13.20
2018-10-16T09:47:19.013Z,13.08
2018-10-16T09:52:21.286Z,15.48
2018-10-16T09:57:23.650Z,13.98
2018-10-16T10:02:25.947Z,16.17
2018-10-16T10:07:28.332Z,16.40
2018-10-16T10:12:30.596Z,18.48
2018-10-16T10:17:32.962Z,13.88
2018-10-16T10:22:35.285Z,14.68
2018-10-16T10:27:37.566Z,14.03
2018-10-16T10:32:40.064Z,16.40
2018-10-16T10:37:42.449Z,14.75
2018-10-16T10:42:44.803Z,14.33
2018-10-16T10:47:47.125Z,13.70
2018-10-16T10:52:49.413Z,17.02
2018-10-16T10:57:51.687Z,17.07
2018-10-16T11:02:54.078Z,16.05
2018-10-16T11:07:56.321Z,14.45
2018-10-16T11:12:58.613Z,17.12
2018-10-16T11:18:00.925Z,14.60
2018-10-16T11:23:03.358Z,16.55
2018-10-16T11:28:05.825Z,17.27
2018-10-16T11:33:08.182Z,17.37
2018-10-16T11:38:10.418Z,14.90
2018-10-16T11:43:12.775Z,22.25
2018-10-16T11:48:15.194Z,20.77
2018-10-16T11:53:17.567Z,16.48
2018-10-16T11:58:19.842Z,15.32
2018-10-16T12:03:22.146Z,13.30
2018-10-16T12:08:24.429Z,15.98
2018-10-16T12:13:26.726Z,18.12
2018-10-16T12:19:33.616Z,14.80
2018-10-16T12:24:35.970Z,21.90
2018-10-16T12:29:38.228Z,16.45
2018-10-16T12:34:40.647Z,15.65
2018-10-16T12:39:43.044Z,13.95
2018-10-16T12:44:45.253Z,15.20
2018-10-16T12:49:47.539Z,14.45
2018-10-16T12:54:49.800Z,15.28
2018-10-16T12:59:52.274Z,13.78
2018-10-16T13:04:54.530Z,14.53
2018-10-16T13:09:56.784Z,17.02
2018-10-16T13:14:59.289Z,14.87
2018-10-16T13:20:01.619Z,15.93
2018-10-16T13:25:04.468Z,15.25
2018-10-16T13:30:08.868Z,15.15
2018-10-16T13:35:13.096Z,14.63
2018-10-16T13:40:15.388Z,14.65
2018-10-16T13:45:17.699Z,15.35
2018-10-16T13:50:19.987Z,18.80
2018-10-16T13:55:22.245Z,22.48
2018-10-16T14:00:24.529Z,26.05
2018-10-16T14:05:26.824Z,17.92
2018-10-16T14:10:29.072Z,18.25
2018-10-16T14:15:31.324Z,19.17
2018-10-16T14:20:33.822Z,19.02
2018-10-16T14:25:36.120Z,18.37
2018-10-16T14:30:38.403Z,18.73
2018-10-16T14:35:40.681Z,22.58
2018-10-16T14:40:43.011Z,19.23
2018-10-16T14:45:45.386Z,16.17
2018-10-16T14:50:47.817Z,16.80
2018-10-16T14:55:50.093Z,20.23
2018-10-16T15:00:52.435Z,20.62
2018-10-16T15:05:54.809Z,17.77
2018-10-16T15:10:57.877Z,18.10
2018-10-16T15:16:00.244Z,16.73
2018-10-16T15:21:02.636Z,18.02
2018-10-16T15:26:05.528Z,15.65
2018-10-16T15:31:07.797Z,21.10
2018-10-16T15:36:10.184Z,21.45
2018-10-16T15:41:12.606Z,16.67
2018-10-16T15:46:14.907Z,22.62
2018-10-16T15:51:17.194Z,18.25
2018-10-16T15:56:19.534Z,19.48
2018-10-16T16:01:21.904Z,19.75
2018-10-16T16:06:24.197Z,24.80
2018-10-16T16:11:26.728Z,20.52
2018-10-16T16:16:28.996Z,24.70
2018-10-16T16:21:31.681Z,20.35
2018-10-16T16:26:33.975Z,20.37
2018-10-16T16:31:36.391Z,19.50
2018-10-16T16:36:38.685Z,19.48
2018-10-16T16:41:41.222Z,17.50
2018-10-16T16:46:43.501Z,19.20
2018-10-16T16:51:45.849Z,21.05
2018-10-16T16:56:48.152Z,21.55
2018-10-16T17:01:51.067Z,19.05
2018-10-16T17:06:53.917Z,24.30
2018-10-16T17:11:56.588Z,20.90
2018-10-16T17:16:59.649Z,16.87
2018-10-16T17:22:01.990Z,21.15
2018-10-16T17:27:04.425Z,18.20
2018-10-16T17:32:06.700Z,20.05
2018-10-16T17:37:09.046Z,21.73
2018-10-16T17:42:11.333Z,22.22
2018-10-16T17:47:15.571Z,21.80
2018-10-16T17:52:17.936Z,19.45
2018-10-16T17:57:21.739Z,19.10
2018-10-16T18:02:24.100Z,24.95
2018-10-16T18:07:27.838Z,23.67
2018-10-16T18:12:30.230Z,19.75
2018-10-16T18:17:32.537Z,23.85
2018-10-16T18:22:34.882Z,20.30
2018-10-16T18:27:37.337Z,23.62
2018-10-16T18:32:39.925Z,23.70
2018-10-16T18:37:43.005Z,22.20
2018-10-16T18:42:45.285Z,24.80
2018-10-16T18:47:47.693Z,22.52
2018-10-16T18:52:50.110Z,22.48
2018-10-16T18:57:52.474Z,21.33
2018-10-16T19:02:54.809Z,21.33
2018-10-16T19:07:57.082Z,24.52
2018-10-16T19:13:02.527Z,23.20
2018-10-16T19:18:04.861Z,23.67
2018-10-16T19:23:07.178Z,23.00
2018-10-16T19:28:09.472Z,20.65
2018-10-16T19:33:11.919Z,21.25
2018-10-16T19:38:14.059Z,21.37
2018-10-16T19:43:16.309Z,23.25
2018-10-16T19:48:18.729Z,22.85
2018-10-16T19:53:21.092Z,25.40
2018-10-16T19:58:23.374Z,23.92
2018-10-16T20:03:25.705Z,21.82
2018-10-16T20:08:28.590Z,22.75
2018-10-16T20:13:30.899Z,23.12
2018-10-16T20:18:33.239Z,22.13
2018-10-16T20:23:35.573Z,20.10
2018-10-16T20:28:37.995Z,25.43
2018-10-16T20:33:40.245Z,21.90
2018-10-16T20:38:42.610Z,21.30
2018-10-16T20:43:44.860Z,24.45
2018-10-16T20:48:47.107Z,22.65
2018-10-16T20:53:49.449Z,23.05
2018-10-16T20:58:52.102Z,22.17
2018-10-16T21:03:54.406Z,21.87
2018-10-16T21:08:56.661Z,22.73
2018-10-16T21:13:58.921Z,25.90
2018-10-16T21:19:01.212Z,27.30
2018-10-16T21:24:03.825Z,27.00
2018-10-16T21:29:06.171Z,27.50
2018-10-16T21:34:08.400Z,25.57
2018-10-16T21:39:11.102Z,25.40
2018-10-16T21:44:13.421Z,28.27
2018-10-16T21:49:15.736Z,32.20
2018-10-16T21:54:18.256Z,25.80
2018-10-16T21:59:20.553Z,29.37
2018-10-16T22:04:22.808Z,26.10
2018-10-16T22:09:25.074Z,25.05
2018-10-16T22:14:27.332Z,26.23
2018-10-16T22:19:29.594Z,24.50
2018-10-16T22:24:31.964Z,27.13
2018-10-16T22:29:34.308Z,26.23
2018-10-16T22:34:36.481Z,26.27
2018-10-16T22:39:38.749Z,29.00
2018-10-16T22:44:41.133Z,27.52
2018-10-16T22:49:43.356Z,27.05
2018-10-16T22:54:45.813Z,27.20
2018-10-16T22:59:48.060Z,25.65
2018-10-16T23:04:50.304Z,26.05
2018-10-16T23:09:52.550Z,27.20
2018-10-16T23:14:54.798Z,28.27
2018-10-16T23:19:57.047Z,24.85
2018-10-16T23:24:59.654Z,26.15
2018-10-16T23:30:02.112Z,27.22
2018-10-16T23:35:04.851Z,24.50
2018-10-16T23:40:07.144Z,25.55
2018-10-16T23:45:09.424Z,25.77
2018-10-16T23:50:11.748Z,32.10
2018-10-16T23:55:14.106Z,34.05
